sensor_id;sensor_type;location;lat;lon;timestamp;pressure;altitude;pressure_sealevel;temperature;humidity
37764;BME280;23602;51.084;7.090;2023-04-09T00:00:05;101146.03;;;5.74;100.00
37764;BME280;23602;51.084;7.090;2023-04-09T00:02:32;101145.75;;;5.77;100.00
37764;BME280;23602;51.084;7.090;2023-04-09T00:04:57;101145.88;;;5.75;100.00
37764;BME280;23602;51.084;7.090;2023-04-09T00:07:25;101155.03;;;5.73;100.00
37764;BME280;23602;51.084;7.090;2023-04-09T00:09:50;101155.88;;;5.73;100.00
37764;BME280;23602;51.084;7.090;2023-04-09T00:12:16;101149.69;;;5.73;100.00
37764;BME280;23602;51.084;7.090;2023-04-09T00:14:41;101149.16;;;5.69;100.00
37764;BME280;23602;51.084;7.090;2023-04-09T00:17:06;101147.13;;;5.63;100.00
37764;BME280;23602;51.084;7.090;2023-04-09T00:19:32;101151.22;;;5.58;100.00
37764;BME280;23602;51.084;7.090;2023-04-09T00:21:57;101146.06;;;5.56;100.00
37764;BME280;23602;51.084;7.090;2023-04-09T00:24:23;101139.13;;;5.46;100.00
37764;BME280;23602;51.084;7.090;2023-04-09T00:26:48;101137.06;;;5.40;100.00
37764;BME280;23602;51.084;7.090;2023-04-09T00:29:14;101130.56;;;5.42;100.00
37764;BME280;23602;51.084;7.090;2023-04-09T00:31:39;101130.34;;;5.36;100.00
37764;BME280;23602;51.084;7.090;2023-04-09T00:34:04;101122.28;;;5.28;100.00
37764;BME280;23602;51.084;7.090;2023-04-09T00:36:31;101126.78;;;5.27;100.00
37764;BME280;23602;51.084;7.090;2023-04-09T00:38:56;101128.75;;;5.25;100.00
37764;BME280;23602;51.084;7.090;2023-04-09T00:41:22;101125.53;;;5.22;100.00
37764;BME280;23602;51.084;7.090;2023-04-09T00:43:48;101127.41;;;5.21;100.00
37764;BME280;23602;51.084;7.090;2023-04-09T00:46:16;101132.19;;;5.18;100.00
37764;BME280;23602;51.084;7.090;2023-04-09T00:48:41;101132.19;;;5.18;100.00
37764;BME280;23602;51.084;7.090;2023-04-09T00:51:07;101132.63;;;5.13;100.00
37764;BME280;23602;51.084;7.090;2023-04-09T00:53:33;101142.16;;;5.16;100.00
37764;BME280;23602;51.084;7.090;2023-04-09T00:55:58;101145.66;;;5.16;100.00
37764;BME280;23602;51.084;7.090;2023-04-09T00:58:23;101141.31;;;5.15;100.00
37764;BME280;23602;51.084;7.090;2023-04-09T01:00:49;101148.31;;;5.16;100.00
37764;BME280;23602;51.084;7.090;2023-04-09T01:03:15;101151.81;;;5.17;100.00
37764;BME280;23602;51.084;7.090;2023-04-09T01:05:58;101146.94;;;5.12;100.00
37764;BME280;23602;51.084;7.090;2023-04-09T01:11:16;101144.44;;;5.10;100.00
37764;BME280;23602;51.084;7.090;2023-04-09T01:13:41;101143.28;;;5.13;100.00
37764;BME280;23602;51.084;7.090;2023-04-09T01:16:09;101148.16;;;5.18;100.00
37764;BME280;23602;51.084;7.090;2023-04-09T01:18:40;101136.44;;;5.10;100.00
37764;BME280;23602;51.084;7.090;2023-04-09T01:21:17;101137.13;;;5.13;100.00
37764;BME280;23602;51.084;7.090;2023-04-09T01:23:56;101133.91;;;5.09;100.00
37764;BME280;23602;51.084;7.090;2023-04-09T01:28:53;101126.44;;;4.95;100.00
37764;BME280;23602;51.084;7.090;2023-04-09T01:31:20;101127.56;;;4.92;100.00
37764;BME280;23602;51.084;7.090;2023-04-09T01:33:49;101128.31;;;4.85;100.00
37764;BME280;23602;51.084;7.090;2023-04-09T01:36:15;101129.28;;;4.84;100.00
37764;BME280;23602;51.084;7.090;2023-04-09T01:38:41;101130.88;;;4.77;100.00
37764;BME280;23602;51.084;7.090;2023-04-09T01:41:08;101132.97;;;4.73;100.00
37764;BME280;23602;51.084;7.090;2023-04-09T01:43:34;101133.03;;;4.64;100.00
37764;BME280;23602;51.084;7.090;2023-04-09T01:46:01;101129.69;;;4.62;100.00
37764;BME280;23602;51.084;7.090;2023-04-09T01:48:28;101127.47;;;4.57;100.00
37764;BME280;23602;51.084;7.090;2023-04-09T01:50:54;101128.63;;;4.55;100.00
37764;BME280;23602;51.084;7.090;2023-04-09T01:53:20;101136.19;;;4.50;100.00
37764;BME280;23602;51.084;7.090;2023-04-09T01:55:46;101133.66;;;4.48;100.00
37764;BME280;23602;51.084;7.090;2023-04-09T01:58:11;101136.78;;;4.43;100.00
37764;BME280;23602;51.084;7.090;2023-04-09T02:00:38;101136.78;;;4.43;100.00
37764;BME280;23602;51.084;7.090;2023-04-09T02:03:10;101140.72;;;4.39;100.00
37764;BME280;23602;51.084;7.090;2023-04-09T02:05:46;101137.50;;;4.36;100.00
37764;BME280;23602;51.084;7.090;2023-04-09T02:08:15;101139.47;;;4.34;100.00
37764;BME280;23602;51.084;7.090;2023-04-09T02:10:43;101134.00;;;4.35;100.00
37764;BME280;23602;51.084;7.090;2023-04-09T02:13:15;101128.44;;;4.29;100.00
37764;BME280;23602;51.084;7.090;2023-04-09T02:15:42;101120.03;;;4.24;100.00
37764;BME280;23602;51.084;7.090;2023-04-09T02:18:29;101118.63;;;4.20;100.00
37764;BME280;23602;51.084;7.090;2023-04-09T02:20:54;101113.75;;;4.15;100.00
37764;BME280;23602;51.084;7.090;2023-04-09T02:23:19;101120.50;;;4.10;100.00
37764;BME280;23602;51.084;7.090;2023-04-09T02:25:44;101113.63;;;4.07;100.00
37764;BME280;23602;51.084;7.090;2023-04-09T02:28:10;101111.97;;;3.97;100.00
37764;BME280;23602;51.084;7.090;2023-04-09T02:30:35;101113.94;;;4.04;100.00
37764;BME280;23602;51.084;7.090;2023-04-09T02:33:00;101104.84;;;3.97;100.00
37764;BME280;23602;51.084;7.090;2023-04-09T02:35:26;101102.63;;;3.93;100.00
37764;BME280;23602;51.084;7.090;2023-04-09T02:37:51;101102.06;;;3.89;100.00
37764;BME280;23602;51.084;7.090;2023-04-09T02:40:17;101106.28;;;3.82;100.00
37764;BME280;23602;51.084;7.090;2023-04-09T02:42:42;101106.31;;;3.72;100.00
37764;BME280;23602;51.084;7.090;2023-04-09T02:45:07;101103.22;;;3.67;100.00
37764;BME280;23602;51.084;7.090;2023-04-09T02:47:33;101106.31;;;3.63;100.00
37764;BME280;23602;51.084;7.090;2023-04-09T02:49:58;101099.75;;;3.57;100.00
37764;BME280;23602;51.084;7.090;2023-04-09T02:52:23;101100.47;;;3.50;100.00
37764;BME280;23602;51.084;7.090;2023-04-09T02:54:50;101097.78;;;3.50;100.00
37764;BME280;23602;51.084;7.090;2023-04-09T02:57:16;101091.50;;;3.41;100.00
37764;BME280;23602;51.084;7.090;2023-04-09T02:59:43;101091.66;;;3.40;100.00
37764;BME280;23602;51.084;7.090;2023-04-09T03:02:09;101093.03;;;3.34;100.00
37764;BME280;23602;51.084;7.090;2023-04-09T03:04:34;101088.28;;;3.28;100.00
37764;BME280;23602;51.084;7.090;2023-04-09T03:06:59;101094.44;;;3.29;100.00
37764;BME280;23602;51.084;7.090;2023-04-09T03:09:27;101079.88;;;3.23;100.00
37764;BME280;23602;51.084;7.090;2023-04-09T03:11:54;101080.19;;;3.20;100.00
37764;BME280;23602;51.084;7.090;2023-04-09T03:14:21;101086.47;;;3.19;100.00
37764;BME280;23602;51.084;7.090;2023-04-09T03:16:46;101084.25;;;3.14;100.00
37764;BME280;23602;51.084;7.090;2023-04-09T03:19:12;101078.09;;;3.04;100.00
37764;BME280;23602;51.084;7.090;2023-04-09T03:21:37;101070.38;;;3.01;100.00
37764;BME280;23602;51.084;7.090;2023-04-09T03:24:03;101066.78;;;3.02;100.00
37764;BME280;23602;51.084;7.090;2023-04-09T03:26:28;101069.81;;;2.98;100.00
37764;BME280;23602;51.084;7.090;2023-04-09T03:28:59;101067.59;;;2.93;100.00
37764;BME280;23602;51.084;7.090;2023-04-09T03:31:25;101074.84;;;2.91;100.00
37764;BME280;23602;51.084;7.090;2023-04-09T03:33:50;101066.31;;;2.88;100.00
37764;BME280;23602;51.084;7.090;2023-04-09T03:36:15;101071.78;;;2.86;100.00
37764;BME280;23602;51.084;7.090;2023-04-09T03:38:41;101075.97;;;2.89;100.00
37764;BME280;23602;51.084;7.090;2023-04-09T03:41:06;101076.22;;;2.86;100.00
37764;BME280;23602;51.084;7.090;2023-04-09T03:43:31;101085.75;;;2.88;100.00
37764;BME280;23602;51.084;7.090;2023-04-09T03:45:57;101084.06;;;2.87;100.00
37764;BME280;23602;51.084;7.090;2023-04-09T03:48:23;101088.53;;;2.87;100.00
37764;BME280;23602;51.084;7.090;2023-04-09T03:50:51;101084.78;;;2.89;100.00
37764;BME280;23602;51.084;7.090;2023-04-09T03:53:17;101090.78;;;2.91;100.00
37764;BME280;23602;51.084;7.090;2023-04-09T03:55:43;101094.97;;;2.94;100.00
37764;BME280;23602;51.084;7.090;2023-04-09T03:58:08;101090.78;;;2.91;100.00
37764;BME280;23602;51.084;7.090;2023-04-09T04:00:34;101094.13;;;2.93;100.00
37764;BME280;23602;51.084;7.090;2023-04-09T04:02:59;101093.84;;;2.96;100.00
37764;BME280;23602;51.084;7.090;2023-04-09T04:05:24;101107.97;;;2.97;100.00
37764;BME280;23602;51.084;7.090;2023-04-09T04:07:50;101097.47;;;2.95;100.00
37764;BME280;23602;51.084;7.090;2023-04-09T04:10:15;101101.53;;;2.90;100.00
37764;BME280;23602;51.084;7.090;2023-04-09T04:12:41;101102.25;;;2.92;100.00
37764;BME280;23602;51.084;7.090;2023-04-09T04:15:06;101098.84;;;2.80;100.00
37764;BME280;23602;51.084;7.090;2023-04-09T04:17:32;101103.91;;;2.83;100.00
37764;BME280;23602;51.084;7.090;2023-04-09T04:19:57;101101.38;;;2.82;100.00
37764;BME280;23602;51.084;7.090;2023-04-09T04:22:22;101104.03;;;2.82;100.00
37764;BME280;23602;51.084;7.090;2023-04-09T04:24:48;101099.53;;;2.82;100.00
37764;BME280;23602;51.084;7.090;2023-04-09T04:27:13;101097.19;;;2.89;100.00
37764;BME280;23602;51.084;7.090;2023-04-09T04:29:38;101104.75;;;2.84;100.00
37764;BME280;23602;51.084;7.090;2023-04-09T04:32:04;101099.97;;;2.78;100.00
37764;BME280;23602;51.084;7.090;2023-04-09T04:34:29;101099.13;;;2.77;100.00
37764;BME280;23602;51.084;7.090;2023-04-09T04:36:54;101094.81;;;2.76;100.00
37764;BME280;23602;51.084;7.090;2023-04-09T04:39:20;101108.50;;;2.81;100.00
37764;BME280;23602;51.084;7.090;2023-04-09T04:41:45;101098.84;;;2.80;100.00
37764;BME280;23602;51.084;7.090;2023-04-09T04:44:13;101098.31;;;2.77;100.00
37764;BME280;23602;51.084;7.090;2023-04-09T04:46:38;101108.06;;;2.76;100.00
37764;BME280;23602;51.084;7.090;2023-04-09T04:49:03;101108.91;;;2.77;100.00
37764;BME280;23602;51.084;7.090;2023-04-09T04:51:32;101111.69;;;2.75;100.00
37764;BME280;23602;51.084;7.090;2023-04-09T04:53:57;101113.94;;;2.80;100.00
37764;BME280;23602;51.084;7.090;2023-04-09T04:56:22;101107.81;;;2.79;100.00
37764;BME280;23602;51.084;7.090;2023-04-09T04:58:48;101111.16;;;2.81;100.00
37764;BME280;23602;51.084;7.090;2023-04-09T05:01:13;101120.09;;;2.80;100.00
37764;BME280;23602;51.084;7.090;2023-04-09T05:03:38;101122.88;;;2.79;100.00
37764;BME280;23602;51.084;7.090;2023-04-09T05:06:04;101119.38;;;2.78;100.00
37764;BME280;23602;51.084;7.090;2023-04-09T05:08:29;101116.91;;;2.86;100.00
37764;BME280;23602;51.084;7.090;2023-04-09T05:10:54;101115.09;;;2.87;100.00
37764;BME280;23602;51.084;7.090;2023-04-09T05:13:20;101110.91;;;2.84;100.00
37764;BME280;23602;51.084;7.090;2023-04-09T05:15:45;101110.91;;;2.84;100.00
37764;BME280;23602;51.084;7.090;2023-04-09T05:18:11;101115.34;;;2.84;100.00
37764;BME280;23602;51.084;7.090;2023-04-09T05:20:36;101112.44;;;2.87;100.00
37764;BME280;23602;51.084;7.090;2023-04-09T05:23:01;101110.63;;;2.87;100.00
37764;BME280;23602;51.084;7.090;2023-04-09T05:25:27;101110.63;;;2.87;100.00
37764;BME280;23602;51.084;7.090;2023-04-09T05:27:52;101106.00;;;2.89;100.00
37764;BME280;23602;51.084;7.090;2023-04-09T05:30:17;101113.84;;;3.00;100.00
37764;BME280;23602;51.084;7.090;2023-04-09T05:32:43;101110.47;;;2.98;100.00
37764;BME280;23602;51.084;7.090;2023-04-09T05:35:08;101118.44;;;2.98;100.00
37764;BME280;23602;51.084;7.090;2023-04-09T05:37:34;101115.69;;;3.00;100.00
37764;BME280;23602;51.084;7.090;2023-04-09T05:39:59;101113.97;;;2.99;100.00
37764;BME280;23602;51.084;7.090;2023-04-09T05:42:24;101113.97;;;2.99;100.00
37764;BME280;23602;51.084;7.090;2023-04-09T05:44:50;101124.75;;;2.97;100.00
37764;BME280;23602;51.084;7.090;2023-04-09T05:47:15;101118.19;;;3.01;100.00
37764;BME280;23602;51.084;7.090;2023-04-09T05:49:41;101118.34;;;3.00;100.00
37764;BME280;23602;51.084;7.090;2023-04-09T05:52:07;101126.84;;;3.03;100.00
37764;BME280;23602;51.084;7.090;2023-04-09T05:54:32;101124.63;;;3.08;100.00
37764;BME280;23602;51.084;7.090;2023-04-09T05:56:57;101127.44;;;3.16;100.00
37764;BME280;23602;51.084;7.090;2023-04-09T05:59:23;101131.78;;;3.17;100.00
37764;BME280;23602;51.084;7.090;2023-04-09T06:01:48;101130.34;;;3.23;100.00
37764;BME280;23602;51.084;7.090;2023-04-09T06:04:13;101127.44;;;3.26;100.00
37764;BME280;23602;51.084;7.090;2023-04-09T06:06:39;101126.03;;;3.32;100.00
37764;BME280;23602;51.084;7.090;2023-04-09T06:09:04;101129.97;;;3.37;100.00
37764;BME280;23602;51.084;7.090;2023-04-09T06:11:30;101132.88;;;3.44;100.00
37764;BME280;23602;51.084;7.090;2023-04-09T06:13:56;101131.38;;;3.51;100.00
37764;BME280;23602;51.084;7.090;2023-04-09T06:16:21;101129.66;;;3.59;100.00
37764;BME280;23602;51.084;7.090;2023-04-09T06:18:47;101124.22;;;3.70;100.00
37764;BME280;23602;51.084;7.090;2023-04-09T06:21:14;101122.09;;;3.74;100.00
37764;BME280;23602;51.084;7.090;2023-04-09T06:23:40;101123.34;;;3.79;100.00
37764;BME280;23602;51.084;7.090;2023-04-09T06:26:05;101122.22;;;3.82;100.00
37764;BME280;23602;51.084;7.090;2023-04-09T06:28:31;101122.09;;;3.93;100.00
37764;BME280;23602;51.084;7.090;2023-04-09T06:30:56;101108.50;;;3.96;100.00
37764;BME280;23602;51.084;7.090;2023-04-09T06:33:22;101107.91;;;4.12;100.00
37764;BME280;23602;51.084;7.090;2023-04-09T06:35:47;101095.13;;;4.15;100.00
37764;BME280;23602;51.084;7.090;2023-04-09T06:38:13;101081.38;;;4.29;100.00
37764;BME280;23602;51.084;7.090;2023-04-09T06:40:38;101089.44;;;4.37;100.00
37764;BME280;23602;51.084;7.090;2023-04-09T06:43:04;101076.84;;;4.39;100.00
37764;BME280;23602;51.084;7.090;2023-04-09T06:45:30;101080.00;;;4.53;100.00
37764;BME280;23602;51.084;7.090;2023-04-09T06:47:56;101073.22;;;4.68;100.00
37764;BME280;23602;51.084;7.090;2023-04-09T06:50:21;101062.94;;;4.73;100.00
37764;BME280;23602;51.084;7.090;2023-04-09T06:52:47;101060.69;;;4.78;100.00
37764;BME280;23602;51.084;7.090;2023-04-09T06:55:12;101045.47;;;4.88;100.00
37764;BME280;23602;51.084;7.090;2023-04-09T06:57:38;101044.25;;;5.00;100.00
37764;BME280;23602;51.084;7.090;2023-04-09T07:00:03;101039.69;;;5.10;100.00
37764;BME280;23602;51.084;7.090;2023-04-09T07:02:29;101018.53;;;5.26;100.00
37764;BME280;23602;51.084;7.090;2023-04-09T07:04:54;101020.91;;;5.37;100.00
37764;BME280;23602;51.084;7.090;2023-04-09T07:07:20;101008.81;;;5.43;100.00
37764;BME280;23602;51.084;7.090;2023-04-09T07:09:47;101016.22;;;5.57;100.00
37764;BME280;23602;51.084;7.090;2023-04-09T07:12:12;101019.44;;;5.60;100.00
37764;BME280;23602;51.084;7.090;2023-04-09T07:14:37;101023.13;;;5.67;100.00
37764;BME280;23602;51.084;7.090;2023-04-09T07:17:02;101023.97;;;5.86;100.00
37764;BME280;23602;51.084;7.090;2023-04-09T07:19:28;101018.50;;;5.95;100.00
37764;BME280;23602;51.084;7.090;2023-04-09T07:21:54;101011.13;;;6.15;100.00
37764;BME280;23602;51.084;7.090;2023-04-09T07:24:20;101004.22;;;6.38;100.00
37764;BME280;23602;51.084;7.090;2023-04-09T07:26:45;100986.91;;;6.66;100.00
37764;BME280;23602;51.084;7.090;2023-04-09T07:29:11;100991.66;;;6.88;100.00
37764;BME280;23602;51.084;7.090;2023-04-09T07:31:36;100986.47;;;7.03;100.00
37764;BME280;23602;51.084;7.090;2023-04-09T07:34:02;100985.31;;;7.22;100.00
37764;BME280;23602;51.084;7.090;2023-04-09T07:36:27;100978.78;;;7.32;100.00
37764;BME280;23602;51.084;7.090;2023-04-09T07:38:53;100982.09;;;7.50;100.00
37764;BME280;23602;51.084;7.090;2023-04-09T07:41:18;100982.75;;;7.60;100.00
37764;BME280;23602;51.084;7.090;2023-04-09T07:43:51;100966.53;;;7.70;100.00
37764;BME280;23602;51.084;7.090;2023-04-09T07:46:19;100979.00;;;7.86;100.00
37764;BME280;23602;51.084;7.090;2023-04-09T07:48:45;100975.78;;;7.98;100.00
37764;BME280;23602;51.084;7.090;2023-04-09T07:51:13;100975.94;;;8.13;100.00
37764;BME280;23602;51.084;7.090;2023-04-09T07:53:39;100977.75;;;8.29;100.00
37764;BME280;23602;51.084;7.090;2023-04-09T07:56:05;100958.44;;;8.41;100.00
37764;BME280;23602;51.084;7.090;2023-04-09T07:58:30;100960.28;;;8.63;100.00
37764;BME280;23602;51.084;7.090;2023-04-09T08:00:56;100968.34;;;8.86;100.00
37764;BME280;23602;51.084;7.090;2023-04-09T08:03:21;100954.66;;;9.04;100.00
37764;BME280;23602;51.084;7.090;2023-04-09T08:05:47;100958.13;;;9.27;100.00
37764;BME280;23602;51.084;7.090;2023-04-09T08:08:12;100948.94;;;9.59;100.00
37764;BME280;23602;51.084;7.090;2023-04-09T08:10:38;100952.94;;;9.77;100.00
37764;BME280;23602;51.084;7.090;2023-04-09T08:13:03;100948.00;;;10.10;100.00
37764;BME280;23602;51.084;7.090;2023-04-09T08:15:29;100951.13;;;10.57;100.00
37764;BME280;23602;51.084;7.090;2023-04-09T08:17:54;100949.72;;;11.04;100.00
37764;BME280;23602;51.084;7.090;2023-04-09T08:20:23;100946.06;;;11.39;100.00
37764;BME280;23602;51.084;7.090;2023-04-09T08:22:48;100930.88;;;11.80;100.00
37764;BME280;23602;51.084;7.090;2023-04-09T08:25:14;100945.84;;;12.30;100.00
37764;BME280;23602;51.084;7.090;2023-04-09T08:27:39;100946.75;;;12.50;100.00
37764;BME280;23602;51.084;7.090;2023-04-09T08:30:08;100941.00;;;12.80;100.00
37764;BME280;23602;51.084;7.090;2023-04-09T08:32:33;100933.56;;;12.88;100.00
37764;BME280;23602;51.084;7.090;2023-04-09T08:34:59;100947.47;;;12.98;100.00
37764;BME280;23602;51.084;7.090;2023-04-09T08:37:25;100950.38;;;12.97;100.00
37764;BME280;23602;51.084;7.090;2023-04-09T08:39:50;100946.91;;;13.36;100.00
37764;BME280;23602;51.084;7.090;2023-04-09T08:42:16;100950.44;;;13.29;100.00
37764;BME280;23602;51.084;7.090;2023-04-09T08:44:45;100942.13;;;13.11;100.00
37764;BME280;23602;51.084;7.090;2023-04-09T08:47:11;100944.38;;;13.67;99.52
37764;BME280;23602;51.084;7.090;2023-04-09T08:49:40;100938.03;;;14.12;100.00
37764;BME280;23602;51.084;7.090;2023-04-09T08:52:05;100936.84;;;14.59;75.61
37764;BME280;23602;51.084;7.090;2023-04-09T08:54:31;100935.28;;;14.70;70.37
37764;BME280;23602;51.084;7.090;2023-04-09T08:56:57;100939.34;;;15.41;77.20
37764;BME280;23602;51.084;7.090;2023-04-09T08:59:22;100940.66;;;15.81;86.94
37764;BME280;23602;51.084;7.090;2023-04-09T09:01:48;100935.53;;;15.24;59.45
37764;BME280;23602;51.084;7.090;2023-04-09T09:04:18;100944.66;;;14.74;61.55
37764;BME280;23602;51.084;7.090;2023-04-09T09:06:43;100948.22;;;14.68;79.63
37764;BME280;23602;51.084;7.090;2023-04-09T09:09:10;100932.59;;;14.70;62.20
37764;BME280;23602;51.084;7.090;2023-04-09T09:11:46;100937.72;;;14.84;66.63
37764;BME280;23602;51.084;7.090;2023-04-09T09:14:16;100938.22;;;14.68;69.38
37764;BME280;23602;51.084;7.090;2023-04-09T09:16:43;100936.66;;;14.54;68.79
37764;BME280;23602;51.084;7.090;2023-04-09T09:19:10;100935.53;;;14.99;73.93
37764;BME280;23602;51.084;7.090;2023-04-09T09:22:04;100930.97;;;15.25;63.88
37764;BME280;23602;51.084;7.090;2023-04-09T09:24:30;100932.25;;;16.26;70.58
37764;BME280;23602;51.084;7.090;2023-04-09T09:27:09;100929.03;;;17.06;62.30
37764;BME280;23602;51.084;7.090;2023-04-09T09:29:45;100934.44;;;17.36;66.06
37764;BME280;23602;51.084;7.090;2023-04-09T09:32:12;100927.16;;;16.95;52.00
37764;BME280;23602;51.084;7.090;2023-04-09T09:34:37;100915.03;;;17.44;53.78
37764;BME280;23602;51.084;7.090;2023-04-09T09:37:05;100907.63;;;18.38;60.59
37764;BME280;23602;51.084;7.090;2023-04-09T09:39:55;100908.94;;;18.23;52.63
37764;BME280;23602;51.084;7.090;2023-04-09T09:42:23;100914.53;;;18.57;53.83
37764;BME280;23602;51.084;7.090;2023-04-09T09:44:50;100915.06;;;18.70;47.93
37764;BME280;23602;51.084;7.090;2023-04-09T09:47:16;100909.16;;;18.73;44.94
37764;BME280;23602;51.084;7.090;2023-04-09T09:49:55;100908.72;;;18.25;47.61
37764;BME280;23602;51.084;7.090;2023-04-09T09:52:24;100919.63;;;16.68;50.88
37764;BME280;23602;51.084;7.090;2023-04-09T09:54:51;100918.50;;;15.66;51.26
37764;BME280;23602;51.084;7.090;2023-04-09T09:57:20;100908.06;;;14.96;53.72
37764;BME280;23602;51.084;7.090;2023-04-09T09:59:57;100918.72;;;15.15;56.83
37764;BME280;23602;51.084;7.090;2023-04-09T10:02:27;100906.19;;;15.21;54.51
37764;BME280;23602;51.084;7.090;2023-04-09T10:04:55;100908.13;;;15.39;61.79
37764;BME280;23602;51.084;7.090;2023-04-09T10:07:24;100904.91;;;15.73;62.43
37764;BME280;23602;51.084;7.090;2023-04-09T10:09:51;100901.16;;;16.58;66.56
37764;BME280;23602;51.084;7.090;2023-04-09T10:12:30;100902.09;;;16.34;56.03
37764;BME280;23602;51.084;7.090;2023-04-09T10:15:08;100899.94;;;16.06;54.81
37764;BME280;23602;51.084;7.090;2023-04-09T10:17:33;100899.84;;;15.76;58.06
37764;BME280;23602;51.084;7.090;2023-04-09T10:20:13;100899.75;;;15.47;60.86
37764;BME280;23602;51.084;7.090;2023-04-09T10:22:45;100898.31;;;15.19;61.82
37764;BME280;23602;51.084;7.090;2023-04-09T10:25:12;100899.09;;;14.95;64.26
37764;BME280;23602;51.084;7.090;2023-04-09T10:27:41;100899.91;;;15.27;61.93
37764;BME280;23602;51.084;7.090;2023-04-09T10:30:32;100886.53;;;15.07;56.33
37764;BME280;23602;51.084;7.090;2023-04-09T10:33:11;100894.53;;;15.20;62.97
37764;BME280;23602;51.084;7.090;2023-04-09T10:35:37;100890.06;;;15.08;62.19
37764;BME280;23602;51.084;7.090;2023-04-09T10:38:05;100890.06;;;15.57;62.50
37764;BME280;23602;51.084;7.090;2023-04-09T10:40:31;100896.78;;;16.09;68.79
37764;BME280;23602;51.084;7.090;2023-04-09T10:43:07;100890.84;;;16.01;57.60
37764;BME280;23602;51.084;7.090;2023-04-09T10:45:39;100888.41;;;15.32;56.13
37764;BME280;23602;51.084;7.090;2023-04-09T10:48:13;100888.31;;;15.20;63.17
37764;BME280;23602;51.084;7.090;2023-04-09T10:50:41;100901.13;;;15.06;67.25
37764;BME280;23602;51.084;7.090;2023-04-09T10:53:20;100889.84;;;15.09;65.34
37764;BME280;23602;51.084;7.090;2023-04-09T10:56:05;100889.03;;;14.78;80.52
37764;BME280;23602;51.084;7.090;2023-04-09T10:58:33;100878.66;;;14.43;68.78
37764;BME280;23602;51.084;7.090;2023-04-09T11:01:01;100886.88;;;14.17;67.02
37764;BME280;23602;51.084;7.090;2023-04-09T11:03:29;100883.19;;;13.99;63.47
37764;BME280;23602;51.084;7.090;2023-04-09T11:06:03;100886.91;;;14.04;87.03
37764;BME280;23602;51.084;7.090;2023-04-09T11:08:35;100877.38;;;14.02;63.29
37764;BME280;23602;51.084;7.090;2023-04-09T11:11:02;100891.56;;;13.90;83.70
37764;BME280;23602;51.084;7.090;2023-04-09T11:13:28;100883.06;;;13.80;77.66
37764;BME280;23602;51.084;7.090;2023-04-09T11:16:01;100875.78;;;13.81;93.35
37764;BME280;23602;51.084;7.090;2023-04-09T11:18:30;100868.56;;;13.62;74.54
37764;BME280;23602;51.084;7.090;2023-04-09T11:20:59;100873.78;;;13.57;83.38
37764;BME280;23602;51.084;7.090;2023-04-09T11:23:25;100866.41;;;13.90;88.45
37764;BME280;23602;51.084;7.090;2023-04-09T11:25:53;100867.84;;;14.43;88.58
37764;BME280;23602;51.084;7.090;2023-04-09T11:28:22;100859.91;;;14.48;73.06
37764;BME280;23602;51.084;7.090;2023-04-09T11:30:51;100859.00;;;14.54;70.50
37764;BME280;23602;51.084;7.090;2023-04-09T11:33:18;100861.94;;;14.15;63.58
37764;BME280;23602;51.084;7.090;2023-04-09T11:35:46;100863.56;;;14.61;70.05
37764;BME280;23602;51.084;7.090;2023-04-09T11:38:11;100858.81;;;14.56;65.32
37764;BME280;23602;51.084;7.090;2023-04-09T11:40:41;100855.22;;;14.62;69.63
37764;BME280;23602;51.084;7.090;2023-04-09T11:43:11;100853.81;;;15.09;76.36
37764;BME280;23602;51.084;7.090;2023-04-09T11:45:40;100845.31;;;15.30;63.03
37764;BME280;23602;51.084;7.090;2023-04-09T11:48:16;100848.72;;;15.19;70.50
37764;BME280;23602;51.084;7.090;2023-04-09T11:50:45;100855.16;;;15.00;67.63
37764;BME280;23602;51.084;7.090;2023-04-09T11:53:17;100854.81;;;14.90;60.14
37764;BME280;23602;51.084;7.090;2023-04-09T11:55:45;100853.88;;;14.46;60.99
37764;BME280;23602;51.084;7.090;2023-04-09T11:58:13;100860.25;;;14.21;62.26
37764;BME280;23602;51.084;7.090;2023-04-09T12:00:51;100856.88;;;14.25;65.32
37764;BME280;23602;51.084;7.090;2023-04-09T12:03:17;100864.31;;;14.43;70.75
37764;BME280;23602;51.084;7.090;2023-04-09T12:05:44;100865.75;;;14.77;72.25
37764;BME280;23602;51.084;7.090;2023-04-09T12:08:12;100863.38;;;14.55;71.19
37764;BME280;23602;51.084;7.090;2023-04-09T12:10:37;100847.31;;;14.92;67.92
37764;BME280;23602;51.084;7.090;2023-04-09T12:13:10;100848.81;;;15.31;68.06
37764;BME280;23602;51.084;7.090;2023-04-09T12:15:43;100844.06;;;15.69;66.28
37764;BME280;23602;51.084;7.090;2023-04-09T12:18:11;100826.22;;;15.61;55.32
37764;BME280;23602;51.084;7.090;2023-04-09T12:20:39;100847.31;;;15.96;58.97
37764;BME280;23602;51.084;7.090;2023-04-09T12:23:07;100840.47;;;16.23;54.71
37764;BME280;23602;51.084;7.090;2023-04-09T12:25:38;100853.88;;;15.88;56.81
37764;BME280;23602;51.084;7.090;2023-04-09T12:28:13;100845.03;;;15.93;59.05
37764;BME280;23602;51.084;7.090;2023-04-09T12:30:49;100836.25;;;15.61;54.50
37764;BME280;23602;51.084;7.090;2023-04-09T12:33:14;100831.50;;;15.74;56.57
37764;BME280;23602;51.084;7.090;2023-04-09T12:35:40;100840.47;;;15.93;55.31
37764;BME280;23602;51.084;7.090;2023-04-09T12:41:09;100836.81;;;15.99;55.71
37764;BME280;23602;51.084;7.090;2023-04-09T12:43:39;100834.59;;;15.96;54.03
37764;BME280;23602;51.084;7.090;2023-04-09T12:46:18;100830.91;;;15.91;53.89
37764;BME280;23602;51.084;7.090;2023-04-09T12:48:59;100832.06;;;16.13;59.56
37764;BME280;23602;51.084;7.090;2023-04-09T12:51:24;100824.13;;;16.29;52.71
37764;BME280;23602;51.084;7.090;2023-04-09T12:53:53;100830.72;;;16.22;50.75
37764;BME280;23602;51.084;7.090;2023-04-09T12:56:24;100823.16;;;16.24;54.64
37764;BME280;23602;51.084;7.090;2023-04-09T12:58:50;100826.13;;;16.04;56.46